sensor_id;sensor_type;location;lat;lon;timestamp;P1;durP1;ratioP1;P2;durP2;ratioP2
51810;SDS011;52468;40.116;18.296;2023-02-23T00:02:00;68.20;;;37.47;;
51810;SDS011;52468;40.116;18.296;2023-02-23T00:04:32;63.13;;;34.57;;
51810;SDS011;52468;40.116;18.296;2023-02-23T00:07:01;67.00;;;39.33;;
51810;SDS011;52468;40.116;18.296;2023-02-23T00:09:29;68.73;;;37.33;;
51810;SDS011;52468;40.116;18.296;2023-02-23T00:12:03;71.37;;;39.00;;
51810;SDS011;52468;40.116;18.296;2023-02-23T00:14:35;76.28;;;39.22;;
51810;SDS011;52468;40.116;18.296;2023-02-23T00:17:04;87.07;;;41.63;;
51810;SDS011;52468;40.116;18.296;2023-02-23T00:19:40;79.40;;;42.10;;
51810;SDS011;52468;40.116;18.296;2023-02-23T00:22:10;83.40;;;42.00;;
51810;SDS011;52468;40.116;18.296;2023-02-23T00:24:38;84.73;;;43.70;;
51810;SDS011;52468;40.116;18.296;2023-02-23T00:27:09;75.73;;;42.43;;
51810;SDS011;52468;40.116;18.296;2023-02-23T00:29:39;73.90;;;41.53;;
51810;SDS011;52468;40.116;18.296;2023-02-23T00:32:07;75.03;;;41.10;;
51810;SDS011;52468;40.116;18.296;2023-02-23T00:34:37;88.87;;;42.90;;
51810;SDS011;52468;40.116;18.296;2023-02-23T00:37:05;81.17;;;41.37;;
51810;SDS011;52468;40.116;18.296;2023-02-23T00:39:34;74.13;;;39.40;;
51810;SDS011;52468;40.116;18.296;2023-02-23T00:42:02;74.53;;;39.13;;
51810;SDS011;52468;40.116;18.296;2023-02-23T00:44:32;81.40;;;39.80;;
51810;SDS011;52468;40.116;18.296;2023-02-23T00:47:02;70.87;;;38.43;;
51810;SDS011;52468;40.116;18.296;2023-02-23T00:49:31;64.97;;;35.60;;
51810;SDS011;52468;40.116;18.296;2023-02-23T00:52:01;73.33;;;37.23;;
51810;SDS011;52468;40.116;18.296;2023-02-23T00:54:30;70.27;;;38.60;;
51810;SDS011;52468;40.116;18.296;2023-02-23T00:56:58;73.67;;;38.10;;
51810;SDS011;52468;40.116;18.296;2023-02-23T00:59:26;76.43;;;40.07;;
51810;SDS011;52468;40.116;18.296;2023-02-23T01:01:55;79.37;;;39.63;;
51810;SDS011;52468;40.116;18.296;2023-02-23T01:04:23;82.53;;;39.73;;
51810;SDS011;52468;40.116;18.296;2023-02-23T01:06:51;81.30;;;39.93;;
51810;SDS011;52468;40.116;18.296;2023-02-23T01:09:19;70.67;;;38.60;;
51810;SDS011;52468;40.116;18.296;2023-02-23T01:11:54;87.30;;;41.00;;
51810;SDS011;52468;40.116;18.296;2023-02-23T01:14:23;75.30;;;40.63;;
51810;SDS011;52468;40.116;18.296;2023-02-23T01:16:51;70.70;;;41.27;;
51810;SDS011;52468;40.116;18.296;2023-02-23T01:19:19;79.63;;;37.27;;
51810;SDS011;52468;40.116;18.296;2023-02-23T01:21:48;70.23;;;38.57;;
51810;SDS011;52468;40.116;18.296;2023-02-23T01:24:16;74.17;;;37.87;;
51810;SDS011;52468;40.116;18.296;2023-02-23T01:26:44;74.57;;;37.07;;
51810;SDS011;52468;40.116;18.296;2023-02-23T01:29:16;67.83;;;35.97;;
51810;SDS011;52468;40.116;18.296;2023-02-23T01:31:45;75.60;;;37.67;;
51810;SDS011;52468;40.116;18.296;2023-02-23T01:34:17;75.90;;;38.53;;
51810;SDS011;52468;40.116;18.296;2023-02-23T01:36:47;76.57;;;38.10;;
51810;SDS011;52468;40.116;18.296;2023-02-23T01:39:17;80.03;;;39.03;;
51810;SDS011;52468;40.116;18.296;2023-02-23T01:41:46;75.23;;;38.00;;
51810;SDS011;52468;40.116;18.296;2023-02-23T01:46:45;76.33;;;39.87;;
51810;SDS011;52468;40.116;18.296;2023-02-23T01:49:17;79.57;;;39.47;;
51810;SDS011;52468;40.116;18.296;2023-02-23T01:51:50;79.73;;;40.57;;
51810;SDS011;52468;40.116;18.296;2023-02-23T01:54:23;92.40;;;39.53;;
51810;SDS011;52468;40.116;18.296;2023-02-23T01:56:55;81.65;;;39.25;;
51810;SDS011;52468;40.116;18.296;2023-02-23T01:59:48;82.47;;;40.57;;
51810;SDS011;52468;40.116;18.296;2023-02-23T02:02:17;73.70;;;36.53;;
51810;SDS011;52468;40.116;18.296;2023-02-23T02:04:47;70.00;;;34.10;;
51810;SDS011;52468;40.116;18.296;2023-02-23T02:07:22;67.13;;;34.13;;
51810;SDS011;52468;40.116;18.296;2023-02-23T02:09:53;70.43;;;31.60;;
51810;SDS011;52468;40.116;18.296;2023-02-23T02:12:44;64.57;;;35.37;;
51810;SDS011;52468;40.116;18.296;2023-02-23T02:15:18;64.13;;;32.23;;
51810;SDS011;52468;40.116;18.296;2023-02-23T02:43:00;58.00;;;31.43;;
51810;SDS011;52468;40.116;18.296;2023-02-23T02:48:35;97.77;;;35.33;;
51810;SDS011;52468;40.116;18.296;2023-02-23T02:51:15;80.17;;;32.93;;
51810;SDS011;52468;40.116;18.296;2023-02-23T02:53:55;72.50;;;33.77;;
51810;SDS011;52468;40.116;18.296;2023-02-23T02:56:33;66.40;;;31.80;;
51810;SDS011;52468;40.116;18.296;2023-02-23T02:59:15;64.93;;;32.73;;
51810;SDS011;52468;40.116;18.296;2023-02-23T03:02:04;62.97;;;28.67;;
51810;SDS011;52468;40.116;18.296;2023-02-23T03:04:52;64.80;;;29.27;;
51810;SDS011;52468;40.116;18.296;2023-02-23T03:07:41;58.00;;;27.80;;
51810;SDS011;52468;40.116;18.296;2023-02-23T03:10:46;63.10;;;27.87;;
51810;SDS011;52468;40.116;18.296;2023-02-23T03:14:00;65.63;;;29.57;;
51810;SDS011;52468;40.116;18.296;2023-02-23T03:23:39;69.70;;;31.67;;
51810;SDS011;52468;40.116;18.296;2023-02-23T03:26:46;64.50;;;31.97;;
51810;SDS011;52468;40.116;18.296;2023-02-23T03:33:14;51.13;;;26.63;;
51810;SDS011;52468;40.116;18.296;2023-02-23T03:36:09;58.40;;;28.67;;
51810;SDS011;52468;40.116;18.296;2023-02-23T03:41:53;60.03;;;26.57;;
51810;SDS011;52468;40.116;18.296;2023-02-23T03:44:43;60.10;;;26.40;;
51810;SDS011;52468;40.116;18.296;2023-02-23T03:47:32;57.70;;;24.43;;
51810;SDS011;52468;40.116;18.296;2023-02-23T03:50:23;54.50;;;24.63;;
51810;SDS011;52468;40.116;18.296;2023-02-23T03:53:16;45.50;;;24.43;;
51810;SDS011;52468;40.116;18.296;2023-02-23T03:56:09;47.13;;;23.10;;
51810;SDS011;52468;40.116;18.296;2023-02-23T03:58:59;48.83;;;23.00;;
51810;SDS011;52468;40.116;18.296;2023-02-23T04:01:48;55.87;;;27.17;;
51810;SDS011;52468;40.116;18.296;2023-02-23T04:04:39;54.07;;;26.47;;
51810;SDS011;52468;40.116;18.296;2023-02-23T04:07:27;56.07;;;28.53;;
51810;SDS011;52468;40.116;18.296;2023-02-23T04:10:14;58.60;;;29.63;;
51810;SDS011;52468;40.116;18.296;2023-02-23T04:13:07;70.20;;;30.10;;
51810;SDS011;52468;40.116;18.296;2023-02-23T04:16:17;59.13;;;26.13;;
51810;SDS011;52468;40.116;18.296;2023-02-23T04:18:38;34.20;;;21.20;;
51810;SDS011;52468;40.116;18.296;2023-02-23T04:21:06;53.33;;;22.53;;
51810;SDS011;52468;40.116;18.296;2023-02-23T04:23:34;65.17;;;22.07;;
51810;SDS011;52468;40.116;18.296;2023-02-23T04:26:06;42.47;;;21.47;;
51810;SDS011;52468;40.116;18.296;2023-02-23T04:28:34;45.17;;;22.17;;
51810;SDS011;52468;40.116;18.296;2023-02-23T04:31:02;57.17;;;26.30;;
51810;SDS011;52468;40.116;18.296;2023-02-23T04:33:30;47.90;;;24.23;;
51810;SDS011;52468;40.116;18.296;2023-02-23T04:35:58;57.00;;;25.77;;
51810;SDS011;52468;40.116;18.296;2023-02-23T04:38:26;63.03;;;27.20;;
51810;SDS011;52468;40.116;18.296;2023-02-23T04:40:54;57.77;;;29.00;;
51810;SDS011;52468;40.116;18.296;2023-02-23T04:43:22;58.87;;;25.53;;
51810;SDS011;52468;40.116;18.296;2023-02-23T04:45:50;56.77;;;25.00;;
51810;SDS011;52468;40.116;18.296;2023-02-23T04:48:18;56.27;;;25.10;;
51810;SDS011;52468;40.116;18.296;2023-02-23T04:50:46;61.30;;;27.17;;
51810;SDS011;52468;40.116;18.296;2023-02-23T04:53:17;62.60;;;26.43;;
51810;SDS011;52468;40.116;18.296;2023-02-23T04:55:45;48.77;;;25.17;;
51810;SDS011;52468;40.116;18.296;2023-02-23T04:58:13;55.77;;;25.90;;
51810;SDS011;52468;40.116;18.296;2023-02-23T05:00:41;73.63;;;26.07;;
51810;SDS011;52468;40.116;18.296;2023-02-23T05:03:09;52.80;;;27.20;;
51810;SDS011;52468;40.116;18.296;2023-02-23T05:05:38;73.53;;;28.37;;
51810;SDS011;52468;40.116;18.296;2023-02-23T05:08:06;61.80;;;30.60;;
51810;SDS011;52468;40.116;18.296;2023-02-23T05:10:34;90.37;;;28.67;;
51810;SDS011;52468;40.116;18.296;2023-02-23T05:13:03;69.20;;;28.33;;
51810;SDS011;52468;40.116;18.296;2023-02-23T05:15:31;56.37;;;25.83;;
51810;SDS011;52468;40.116;18.296;2023-02-23T05:17:59;72.37;;;25.23;;
51810;SDS011;52468;40.116;18.296;2023-02-23T05:20:26;71.67;;;29.60;;
51810;SDS011;52468;40.116;18.296;2023-02-23T05:22:54;76.73;;;26.80;;
51810;SDS011;52468;40.116;18.296;2023-02-23T05:25:22;103.30;;;31.03;;
51810;SDS011;52468;40.116;18.296;2023-02-23T05:27:50;101.17;;;27.43;;
51810;SDS011;52468;40.116;18.296;2023-02-23T05:30:18;90.00;;;30.27;;
51810;SDS011;52468;40.116;18.296;2023-02-23T05:32:45;85.50;;;26.97;;
51810;SDS011;52468;40.116;18.296;2023-02-23T05:35:13;58.27;;;24.30;;
51810;SDS011;52468;40.116;18.296;2023-02-23T05:37:41;93.93;;;26.43;;
51810;SDS011;52468;40.116;18.296;2023-02-23T05:40:09;53.23;;;23.00;;
51810;SDS011;52468;40.116;18.296;2023-02-23T05:42:38;61.67;;;23.30;;
51810;SDS011;52468;40.116;18.296;2023-02-23T05:45:06;59.13;;;24.10;;
51810;SDS011;52468;40.116;18.296;2023-02-23T05:47:34;61.33;;;23.80;;
51810;SDS011;52468;40.116;18.296;2023-02-23T05:50:05;59.90;;;23.83;;
51810;SDS011;52468;40.116;18.296;2023-02-23T05:52:37;92.90;;;27.47;;
51810;SDS011;52468;40.116;18.296;2023-02-23T05:55:08;67.00;;;27.13;;
51810;SDS011;52468;40.116;18.296;2023-02-23T05:57:38;116.30;;;32.23;;
51810;SDS011;52468;40.116;18.296;2023-02-23T06:00:07;83.53;;;27.17;;
51810;SDS011;52468;40.116;18.296;2023-02-23T06:02:36;148.00;;;37.23;;
51810;SDS011;52468;40.116;18.296;2023-02-23T06:05:04;88.50;;;30.60;;
51810;SDS011;52468;40.116;18.296;2023-02-23T06:07:35;61.83;;;26.63;;
51810;SDS011;52468;40.116;18.296;2023-02-23T06:10:03;194.40;;;36.67;;
51810;SDS011;52468;40.116;18.296;2023-02-23T06:12:32;69.37;;;28.70;;
51810;SDS011;52468;40.116;18.296;2023-02-23T06:15:00;68.10;;;30.57;;
51810;SDS011;52468;40.116;18.296;2023-02-23T06:17:29;67.43;;;30.80;;
51810;SDS011;52468;40.116;18.296;2023-02-23T06:19:57;74.10;;;31.33;;
51810;SDS011;52468;40.116;18.296;2023-02-23T06:22:25;70.87;;;32.43;;
51810;SDS011;52468;40.116;18.296;2023-02-23T06:24:53;67.43;;;30.13;;
51810;SDS011;52468;40.116;18.296;2023-02-23T06:27:21;60.60;;;29.13;;
51810;SDS011;52468;40.116;18.296;2023-02-23T06:29:49;78.50;;;30.40;;
51810;SDS011;52468;40.116;18.296;2023-02-23T06:32:17;53.37;;;26.90;;
51810;SDS011;52468;40.116;18.296;2023-02-23T06:34:47;59.97;;;28.40;;
51810;SDS011;52468;40.116;18.296;2023-02-23T06:37:15;60.77;;;29.30;;
51810;SDS011;52468;40.116;18.296;2023-02-23T06:39:43;54.30;;;25.63;;
51810;SDS011;52468;40.116;18.296;2023-02-23T06:42:10;53.90;;;28.47;;
51810;SDS011;52468;40.116;18.296;2023-02-23T06:44:38;47.40;;;25.60;;
51810;SDS011;52468;40.116;18.296;2023-02-23T06:47:06;47.40;;;24.43;;
51810;SDS011;52468;40.116;18.296;2023-02-23T06:49:34;47.10;;;25.17;;
51810;SDS011;52468;40.116;18.296;2023-02-23T06:52:03;36.97;;;20.50;;
51810;SDS011;52468;40.116;18.296;2023-02-23T06:54:31;33.77;;;19.53;;
51810;SDS011;52468;40.116;18.296;2023-02-23T06:57:00;31.60;;;18.17;;
51810;SDS011;52468;40.116;18.296;2023-02-23T06:59:28;33.63;;;17.47;;
51810;SDS011;52468;40.116;18.296;2023-02-23T07:01:56;32.80;;;18.10;;
51810;SDS011;52468;40.116;18.296;2023-02-23T07:04:25;29.97;;;18.30;;
51810;SDS011;52468;40.116;18.296;2023-02-23T07:06:53;29.83;;;18.33;;
51810;SDS011;52468;40.116;18.296;2023-02-23T07:09:21;26.70;;;14.90;;
51810;SDS011;52468;40.116;18.296;2023-02-23T07:11:49;31.37;;;16.90;;
51810;SDS011;52468;40.116;18.296;2023-02-23T07:14:17;29.17;;;16.13;;
51810;SDS011;52468;40.116;18.296;2023-02-23T07:16:52;30.33;;;16.03;;
51810;SDS011;52468;40.116;18.296;2023-02-23T07:19:20;29.70;;;18.67;;
51810;SDS011;52468;40.116;18.296;2023-02-23T07:21:49;26.87;;;15.33;;
51810;SDS011;52468;40.116;18.296;2023-02-23T07:24:17;28.40;;;16.10;;
51810;SDS011;52468;40.116;18.296;2023-02-23T07:26:45;27.40;;;14.60;;
51810;SDS011;52468;40.116;18.296;2023-02-23T07:29:15;27.93;;;15.13;;
51810;SDS011;52468;40.116;18.296;2023-02-23T07:31:43;26.93;;;15.60;;
51810;SDS011;52468;40.116;18.296;2023-02-23T07:34:11;20.20;;;13.83;;
51810;SDS011;52468;40.116;18.296;2023-02-23T07:36:39;19.43;;;14.93;;
51810;SDS011;52468;40.116;18.296;2023-02-23T07:39:07;27.00;;;15.93;;
51810;SDS011;52468;40.116;18.296;2023-02-23T07:41:35;24.73;;;14.03;;
51810;SDS011;52468;40.116;18.296;2023-02-23T07:44:03;21.50;;;14.67;;
51810;SDS011;52468;40.116;18.296;2023-02-23T07:46:31;25.13;;;16.50;;
51810;SDS011;52468;40.116;18.296;2023-02-23T07:48:59;25.27;;;18.03;;
51810;SDS011;52468;40.116;18.296;2023-02-23T07:51:26;41.13;;;22.07;;
51810;SDS011;52468;40.116;18.296;2023-02-23T07:53:54;43.70;;;26.70;;
51810;SDS011;52468;40.116;18.296;2023-02-23T07:56:22;51.47;;;33.67;;
51810;SDS011;52468;40.116;18.296;2023-02-23T07:58:50;53.30;;;35.50;;
51810;SDS011;52468;40.116;18.296;2023-02-23T08:01:18;54.13;;;36.57;;
51810;SDS011;52468;40.116;18.296;2023-02-23T08:03:46;48.97;;;34.80;;
51810;SDS011;52468;40.116;18.296;2023-02-23T08:06:16;44.47;;;28.80;;
51810;SDS011;52468;40.116;18.296;2023-02-23T08:08:45;38.93;;;27.37;;
51810;SDS011;52468;40.116;18.296;2023-02-23T08:11:13;34.90;;;22.80;;
51810;SDS011;52468;40.116;18.296;2023-02-23T08:13:41;31.87;;;21.87;;
51810;SDS011;52468;40.116;18.296;2023-02-23T08:16:09;35.23;;;24.77;;
51810;SDS011;52468;40.116;18.296;2023-02-23T08:18:38;38.57;;;26.40;;
51810;SDS011;52468;40.116;18.296;2023-02-23T08:21:06;33.73;;;23.87;;
51810;SDS011;52468;40.116;18.296;2023-02-23T08:23:34;33.97;;;23.97;;
51810;SDS011;52468;40.116;18.296;2023-02-23T08:26:02;28.27;;;20.57;;
51810;SDS011;52468;40.116;18.296;2023-02-23T08:28:30;34.10;;;20.17;;
51810;SDS011;52468;40.116;18.296;2023-02-23T08:30:58;29.93;;;20.73;;
51810;SDS011;52468;40.116;18.296;2023-02-23T08:33:26;24.13;;;18.23;;
51810;SDS011;52468;40.116;18.296;2023-02-23T08:35:54;27.50;;;16.83;;
51810;SDS011;52468;40.116;18.296;2023-02-23T08:38:25;23.87;;;17.17;;
51810;SDS011;52468;40.116;18.296;2023-02-23T08:40:53;21.83;;;15.37;;
51810;SDS011;52468;40.116;18.296;2023-02-23T08:43:21;21.80;;;15.40;;
51810;SDS011;52468;40.116;18.296;2023-02-23T08:45:48;21.03;;;14.00;;
51810;SDS011;52468;40.116;18.296;2023-02-23T08:48:16;20.33;;;13.40;;
51810;SDS011;52468;40.116;18.296;2023-02-23T08:50:44;20.80;;;14.60;;
51810;SDS011;52468;40.116;18.296;2023-02-23T08:53:16;24.33;;;14.17;;
51810;SDS011;52468;40.116;18.296;2023-02-23T08:55:44;15.10;;;11.37;;
51810;SDS011;52468;40.116;18.296;2023-02-23T08:58:12;14.07;;;11.07;;
51810;SDS011;52468;40.116;18.296;2023-02-23T09:00:40;15.03;;;11.03;;
51810;SDS011;52468;40.116;18.296;2023-02-23T09:03:08;14.23;;;10.40;;
51810;SDS011;52468;40.116;18.296;2023-02-23T09:05:36;12.60;;;8.67;;
51810;SDS011;52468;40.116;18.296;2023-02-23T09:08:04;12.20;;;10.07;;
51810;SDS011;52468;40.116;18.296;2023-02-23T09:10:33;12.97;;;9.30;;
51810;SDS011;52468;40.116;18.296;2023-02-23T09:13:01;12.97;;;8.80;;
51810;SDS011;52468;40.116;18.296;2023-02-23T09:15:29;13.13;;;8.80;;
51810;SDS011;52468;40.116;18.296;2023-02-23T09:18:00;14.50;;;9.90;;
51810;SDS011;52468;40.116;18.296;2023-02-23T09:20:28;13.23;;;9.07;;
51810;SDS011;52468;40.116;18.296;2023-02-23T09:22:56;12.50;;;8.13;;
51810;SDS011;52468;40.116;18.296;2023-02-23T09:25:25;11.90;;;8.77;;
51810;SDS011;52468;40.116;18.296;2023-02-23T09:27:55;12.07;;;8.37;;
51810;SDS011;52468;40.116;18.296;2023-02-23T09:30:24;15.70;;;9.57;;
51810;SDS011;52468;40.116;18.296;2023-02-23T09:32:53;15.33;;;9.83;;
51810;SDS011;52468;40.116;18.296;2023-02-23T09:35:22;15.97;;;10.30;;
51810;SDS011;52468;40.116;18.296;2023-02-23T09:37:52;14.30;;;9.87;;
51810;SDS011;52468;40.116;18.296;2023-02-23T09:40:26;14.00;;;9.17;;
51810;SDS011;52468;40.116;18.296;2023-02-23T09:48:13;13.23;;;7.90;;
51810;SDS011;52468;40.116;18.296;2023-02-23T09:50:50;8.73;;;6.77;;
51810;SDS011;52468;40.116;18.296;2023-02-23T09:53:36;12.27;;;7.07;;
51810;SDS011;52468;40.116;18.296;2023-02-23T09:56:23;8.57;;;6.33;;
51810;SDS011;52468;40.116;18.296;2023-02-23T09:59:14;9.50;;;6.20;;
51810;SDS011;52468;40.116;18.296;2023-02-23T10:04:32;8.27;;;5.63;;
51810;SDS011;52468;40.116;18.296;2023-02-23T10:12:40;9.80;;;6.17;;
51810;SDS011;52468;40.116;18.296;2023-02-23T10:20:57;11.03;;;7.00;;
51810;SDS011;52468;40.116;18.296;2023-02-23T10:23:47;9.53;;;6.77;;
51810;SDS011;52468;40.116;18.296;2023-02-23T10:26:46;9.50;;;6.13;;
51810;SDS011;52468;40.116;18.296;2023-02-23T10:31:56;8.00;;;5.53;;
51810;SDS011;52468;40.116;18.296;2023-02-23T10:34:33;9.60;;;6.10;;
51810;SDS011;52468;40.116;18.296;2023-02-23T10:37:03;10.03;;;6.63;;
51810;SDS011;52468;40.116;18.296;2023-02-23T10:39:33;9.37;;;6.00;;
51810;SDS011;52468;40.116;18.296;2023-02-23T10:42:02;7.83;;;6.30;;
51810;SDS011;52468;40.116;18.296;2023-02-23T10:44:33;10.90;;;6.90;;
51810;SDS011;52468;40.116;18.296;2023-02-23T10:47:05;11.87;;;6.83;;
51810;SDS011;52468;40.116;18.296;2023-02-23T10:49:54;8.53;;;6.53;;
51810;SDS011;52468;40.116;18.296;2023-02-23T10:52:30;7.70;;;6.90;;
51810;SDS011;52468;40.116;18.296;2023-02-23T10:55:18;10.27;;;7.07;;
51810;SDS011;52468;40.116;18.296;2023-02-23T10:58:07;10.90;;;7.33;;
51810;SDS011;52468;40.116;18.296;2023-02-23T11:03:34;12.53;;;7.87;;
51810;SDS011;52468;40.116;18.296;2023-02-23T11:09:28;10.83;;;7.27;;
51810;SDS011;52468;40.116;18.296;2023-02-23T11:12:25;8.13;;;6.70;;
51810;SDS011;52468;40.116;18.296;2023-02-23T11:18:20;7.93;;;5.97;;
51810;SDS011;52468;40.116;18.296;2023-02-23T11:20:50;9.83;;;5.83;;
51810;SDS011;52468;40.116;18.296;2023-02-23T11:26:03;8.33;;;5.97;;
51810;SDS011;52468;40.116;18.296;2023-02-23T11:28:52;9.20;;;6.10;;
51810;SDS011;52468;40.116;18.296;2023-02-23T11:31:30;7.63;;;5.27;;
51810;SDS011;52468;40.116;18.296;2023-02-23T11:34:02;10.00;;;7.90;;
51810;SDS011;52468;40.116;18.296;2023-02-23T11:36:34;7.07;;;5.47;;
51810;SDS011;52468;40.116;18.296;2023-02-23T11:39:13;7.10;;;5.60;;
51810;SDS011;52468;40.116;18.296;2023-02-23T11:41:45;8.23;;;6.37;;
51810;SDS011;52468;40.116;18.296;2023-02-23T11:44:20;9.47;;;5.80;;
51810;SDS011;52468;40.116;18.296;2023-02-23T11:46:50;12.73;;;5.97;;
51810;SDS011;52468;40.116;18.296;2023-02-23T11:49:26;14.70;;;6.57;;
51810;SDS011;52468;40.116;18.296;2023-02-23T11:51:59;8.23;;;5.87;;
51810;SDS011;52468;40.116;18.296;2023-02-23T11:54:28;8.43;;;5.57;;
51810;SDS011;52468;40.116;18.296;2023-02-23T11:57:00;11.10;;;6.93;;
51810;SDS011;52468;40.116;18.296;2023-02-23T11:59:29;7.47;;;5.70;;
51810;SDS011;52468;40.116;18.296;2023-02-23T12:04:45;7.00;;;5.57;;
51810;SDS011;52468;40.116;18.296;2023-02-23T12:07:28;10.13;;;6.83;;
51810;SDS011;52468;40.116;18.296;2023-02-23T12:12:43;9.20;;;5.73;;
51810;SDS011;52468;40.116;18.296;2023-02-23T12:17:48;8.40;;;5.87;;
51810;SDS011;52468;40.116;18.296;2023-02-23T12:20:26;11.03;;;6.77;;
51810;SDS011;52468;40.116;18.296;2023-02-23T12:23:08;10.37;;;5.60;;
51810;SDS011;52468;40.116;18.296;2023-02-23T12:25:47;8.73;;;5.97;;
51810;SDS011;52468;40.116;18.296;2023-02-23T12:28:22;11.83;;;6.00;;
51810;SDS011;52468;40.116;18.296;2023-02-23T12:31:46;11.57;;;6.30;;
51810;SDS011;52468;40.116;18.296;2023-02-23T12:34:04;8.70;;;5.90;;
51810;SDS011;52468;40.116;18.296;2023-02-23T12:36:54;10.13;;;6.47;;
51810;SDS011;52468;40.116;18.296;2023-02-23T12:39:30;12.10;;;6.80;;
51810;SDS011;52468;40.116;18.296;2023-02-23T12:47:53;9.93;;;8.35;;
51810;SDS011;52468;40.116;18.296;2023-02-23T12:50:41;10.50;;;6.83;;
51810;SDS011;52468;40.116;18.296;2023-02-23T12:55:54;11.30;;;6.93;;
51810;SDS011;52468;40.116;18.296;2023-02-23T13:07:18;11.87;;;7.77;;
51810;SDS011;52468;40.116;18.296;2023-02-23T13:10:09;7.17;;;5.57;;
51810;SDS011;52468;40.116;18.296;2023-02-23T13:12:51;13.77;;;9.90;;
51810;SDS011;52468;40.116;18.296;2023-02-23T13:21:29;15.23;;;9.10;;
51810;SDS011;52468;40.116;18.296;2023-02-23T13:24:05;14.33;;;9.83;;
51810;SDS011;52468;40.116;18.296;2023-02-23T13:29:53;10.97;;;6.70;;
51810;SDS011;52468;40.116;18.296;2023-02-23T13:32:22;45.80;;;27.43;;
51810;SDS011;52468;40.116;18.296;2023-02-23T13:34:56;10.20;;;8.27;;
51810;SDS011;52468;40.116;18.296;2023-02-23T13:37:35;10.30;;;6.27;;
51810;SDS011;52468;40.116;18.296;2023-02-23T13:45:30;9.87;;;7.90;;
51810;SDS011;52468;40.116;18.296;2023-02-23T13:54:16;9.93;;;8.23;;
51810;SDS011;52468;40.116;18.296;2023-02-23T13:57:12;8.90;;;6.17;;
51810;SDS011;52468;40.116;18.296;2023-02-23T13:59:44;10.70;;;9.38;;
51810;SDS011;52468;40.116;18.296;2023-02-23T14:02:35;10.20;;;9.13;;
51810;SDS011;52468;40.116;18.296;2023-02-23T14:05:04;8.93;;;6.43;;
51810;SDS011;52468;40.116;18.296;2023-02-23T14:07:52;8.63;;;5.43;;
51810;SDS011;52468;40.116;18.296;2023-02-23T14:10:28;11.87;;;7.00;;
51810;SDS011;52468;40.116;18.296;2023-02-23T14:18:26;20.30;;;12.77;;
51810;SDS011;52468;40.116;18.296;2023-02-23T14:21:04;52.53;;;33.90;;
51810;SDS011;52468;40.116;18.296;2023-02-23T14:24:18;27.00;;;17.52;;
51810;SDS011;52468;40.116;18.296;2023-02-23T14:32:37;10.57;;;7.53;;
51810;SDS011;52468;40.116;18.296;2023-02-23T14:35:50;19.60;;;14.43;;
51810;SDS011;52468;40.116;18.296;2023-02-23T14:38:08;13.03;;;7.57;;
51810;SDS011;52468;40.116;18.296;2023-02-23T14:40:39;15.43;;;10.93;;
51810;SDS011;52468;40.116;18.296;2023-02-23T14:45:59;12.67;;;8.80;;
51810;SDS011;52468;40.116;18.296;2023-02-23T14:48:32;13.33;;;8.83;;
51810;SDS011;52468;40.116;18.296;2023-02-23T14:51:36;12.70;;;8.63;;
51810;SDS011;52468;40.116;18.296;2023-02-23T14:53:59;9.43;;;6.20;;
51810;SDS011;52468;40.116;18.296;2023-02-23T14:56:27;13.10;;;8.40;;
51810;SDS011;52468;40.116;18.296;2023-02-23T14:59:12;8.77;;;5.97;;
51810;SDS011;52468;40.116;18.296;2023-02-23T15:01:50;8.33;;;6.20;;
51810;SDS011;52468;40.116;18.296;2023-02-23T15:04:19;9.83;;;6.50;;
51810;SDS011;52468;40.116;18.296;2023-02-23T15:06:51;11.53;;;8.30;;
51810;SDS011;52468;40.116;18.296;2023-02-23T15:09:26;9.75;;;6.72;;
51810;SDS011;52468;40.116;18.296;2023-02-23T15:11:57;8.03;;;7.13;;
51810;SDS011;52468;40.116;18.296;2023-02-23T15:14:29;11.63;;;7.83;;
51810;SDS011;52468;40.116;18.296;2023-02-23T15:17:02;14.03;;;9.17;;
51810;SDS011;52468;40.116;18.296;2023-02-23T15:19:32;9.67;;;7.40;;
51810;SDS011;52468;40.116;18.296;2023-02-23T15:22:03;10.20;;;7.77;;
51810;SDS011;52468;40.116;18.296;2023-02-23T15:24:39;12.03;;;8.43;;
51810;SDS011;52468;40.116;18.296;2023-02-23T15:27:15;9.13;;;6.23;;
51810;SDS011;52468;40.116;18.296;2023-02-23T15:29:44;11.63;;;7.27;;
51810;SDS011;52468;40.116;18.296;2023-02-23T15:32:22;10.00;;;7.07;;
51810;SDS011;52468;40.116;18.296;2023-02-23T15:34:52;10.50;;;6.77;;
51810;SDS011;52468;40.116;18.296;2023-02-23T15:37:35;10.27;;;7.40;;
51810;SDS011;52468;40.116;18.296;2023-02-23T15:40:14;9.40;;;6.73;;
51810;SDS011;52468;40.116;18.296;2023-02-23T15:42:44;8.23;;;6.00;;
51810;SDS011;52468;40.116;18.296;2023-02-23T15:45:34;9.47;;;7.30;;
51810;SDS011;52468;40.116;18.296;2023-02-23T15:48:14;9.27;;;8.32;;
51810;SDS011;52468;40.116;18.296;2023-02-23T15:50:45;22.43;;;14.60;;
51810;SDS011;52468;40.116;18.296;2023-02-23T15:55:56;14.83;;;10.43;;
51810;SDS011;52468;40.116;18.296;2023-02-23T15:58:39;10.83;;;7.60;;
51810;SDS011;52468;40.116;18.296;2023-02-23T16:01:23;11.33;;;8.23;;
51810;SDS011;52468;40.116;18.296;2023-02-23T16:03:58;18.00;;;11.97;;
51810;SDS011;52468;40.116;18.296;2023-02-23T16:09:52;11.30;;;8.63;;
51810;SDS011;52468;40.116;18.296;2023-02-23T16:14:54;12.20;;;7.60;;
51810;SDS011;52468;40.116;18.296;2023-02-23T16:22:45;15.37;;;9.93;;
51810;SDS011;52468;40.116;18.296;2023-02-23T16:25:21;11.23;;;8.23;;
51810;SDS011;52468;40.116;18.296;2023-02-23T16:27:58;14.60;;;9.20;;
51810;SDS011;52468;40.116;18.296;2023-02-23T16:30:55;14.60;;;9.80;;
51810;SDS011;52468;40.116;18.296;2023-02-23T16:36:12;21.83;;;12.07;;
51810;SDS011;52468;40.116;18.296;2023-02-23T16:38:53;16.23;;;13.23;;
51810;SDS011;52468;40.116;18.296;2023-02-23T16:41:28;18.70;;;12.95;;
51810;SDS011;52468;40.116;18.296;2023-02-23T16:43:58;18.57;;;10.93;;
51810;SDS011;52468;40.116;18.296;2023-02-23T16:46:32;14.20;;;9.43;;
51810;SDS011;52468;40.116;18.296;2023-02-23T16:49:20;20.53;;;12.43;;
51810;SDS011;52468;40.116;18.296;2023-02-23T16:51:49;18.43;;;11.03;;
51810;SDS011;52468;40.116;18.296;2023-02-23T16:54:17;14.07;;;11.40;;
51810;SDS011;52468;40.116;18.296;2023-02-23T16:56:45;25.30;;;15.57;;
51810;SDS011;52468;40.116;18.296;2023-02-23T16:59:14;18.47;;;12.53;;
51810;SDS011;52468;40.116;18.296;2023-02-23T17:01:44;17.30;;;11.57;;
51810;SDS011;52468;40.116;18.296;2023-02-23T17:04:16;22.30;;;16.53;;
51810;SDS011;52468;40.116;18.296;2023-02-23T17:06:45;21.27;;;13.87;;
51810;SDS011;52468;40.116;18.296;2023-02-23T17:11:47;15.13;;;10.67;;
51810;SDS011;52468;40.116;18.296;2023-02-23T17:14:20;17.27;;;11.90;;
51810;SDS011;52468;40.116;18.296;2023-02-23T17:16:58;17.92;;;13.73;;
51810;SDS011;52468;40.116;18.296;2023-02-23T17:19:28;15.80;;;11.17;;
51810;SDS011;52468;40.116;18.296;2023-02-23T17:21:56;31.63;;;22.00;;
51810;SDS011;52468;40.116;18.296;2023-02-23T17:24:24;45.27;;;27.53;;
51810;SDS011;52468;40.116;18.296;2023-02-23T17:26:52;27.87;;;17.73;;
51810;SDS011;52468;40.116;18.296;2023-02-23T17:29:21;19.33;;;15.20;;
51810;SDS011;52468;40.116;18.296;2023-02-23T17:31:49;18.70;;;15.00;;